Time;durP1;ratioP1;P1;durP2;ratioP2;P2;SDS_P1;SDS_P2;PMS_P1;PMS_P2;Temp;Humidity;BMP_temperature;BMP_pressure;BME280_temperature;BME280_humidity;BME280_pressure;Samples;Min_cycle;Max_cycle;Signal;HPM_P1;HPM_P2
2021/08/02 00:00:28;;;;;;;2.90;2.60;;;17.00;99.90;;;;;;5058402;28;20447;-85
2021/08/02 00:03:01;;;;;;;3.47;2.70;;;16.90;99.90;;;;;;5048539;28;20453;-85
2021/08/02 00:05:34;;;;;;;3.67;3.03;;;17.00;99.90;;;;;;5039510;28;20460;-85
2021/08/02 00:08:02;;;;;;;4.00;2.97;;;17.00;99.90;;;;;;5039408;28;20491;-84
2021/08/02 00:10:32;;;;;;;4.10;2.87;;;17.00;99.90;;;;;;5038958;28;20456;-85
2021/08/02 00:13:01;;;;;;;4.50;2.53;;;17.00;99.90;;;;;;5047903;28;20455;-84
2021/08/02 00:15:29;;;;;;;2.90;2.60;;;17.10;99.90;;;;;;5057353;28;20443;-85
2021/08/02 00:17:58;;;;;;;3.60;3.30;;;17.00;99.90;;;;;;5057314;28;20472;-84
2021/08/02 00:20:29;;;;;;;3.60;3.30;;;17.00;99.90;;;;;;5053480;28;20506;-85
2021/08/02 00:22:58;;;;;;;4.50;4.00;;;17.00;99.90;;;;;;5036811;28;20819;-85
2021/08/02 00:25:26;;;;;;;8.47;5.37;;;17.00;99.90;;;;;;5036604;28;20460;-85
2021/08/02 00:27:55;;;;;;;5.80;4.93;;;17.00;99.90;;;;;;5046835;28;20481;-83
2021/08/02 00:30:24;;;;;;;7.77;6.27;;;17.00;99.90;;;;;;5044178;28;20434;-85
2021/08/02 00:32:51;;;;;;;9.57;5.73;;;16.90;99.90;;;;;;5057207;28;20548;-85
2021/08/02 00:35:20;;;;;;;9.90;8.87;;;16.90;99.90;;;;;;5059879;28;20452;-83
2021/08/02 00:37:54;;;;;;;4.37;4.07;;;16.90;99.90;;;;;;5060738;28;20456;-82
2021/08/02 00:40:56;;;;;;;5.13;3.40;;;16.90;99.90;;;;;;5060431;28;20455;-83
2021/08/02 00:44:10;;;;;;;3.70;3.40;;;17.00;99.90;;;;;;5043453;28;20432;-84
2021/08/02 00:46:41;;;;;;;5.70;3.53;;;16.90;99.90;;;;;;5001081;28;20462;-83
2021/08/02 00:49:12;;;;;;;5.57;4.20;;;16.90;99.90;;;;;;4994520;28;20473;-83
2021/08/02 00:51:46;;;;;;;4.37;3.97;;;16.90;99.90;;;;;;5020147;28;20477;-83
2021/08/02 00:54:16;;;;;;;3.60;3.30;;;16.90;99.90;;;;;;5042678;28;20427;-83
2021/08/02 00:56:44;;;;;;;4.07;3.67;;;16.90;99.90;;;;;;5039435;28;20495;-82
2021/08/02 00:59:14;;;;;;;3.40;3.10;;;16.90;99.90;;;;;;5041582;28;20465;-82
2021/08/02 01:01:44;;;;;;;3.63;3.13;;;16.80;99.90;;;;;;5041402;28;20441;-82
2021/08/02 01:04:13;;;;;;;4.53;4.10;;;16.80;99.90;;;;;;5042726;28;20464;-84
2021/08/02 01:06:44;;;;;;;7.13;4.90;;;16.80;99.90;;;;;;5039885;28;20449;-82
2021/08/02 01:09:14;;;;;;;4.93;4.53;;;16.80;99.90;;;;;;5041392;28;20917;-83
2021/08/02 01:11:40;;;;;;;5.77;4.47;;;16.80;99.90;;;;;;5041733;28;20477;-83
2021/08/02 01:14:07;;;;;;;4.90;4.50;;;16.80;99.90;;;;;;5041398;28;20432;-83
2021/08/02 01:16:36;;;;;;;4.00;3.67;;;16.80;99.90;;;;;;5040650;28;20534;-83
2021/08/02 01:19:08;;;;;;;4.67;4.20;;;16.80;99.90;;;;;;5037473;28;20973;-83
2021/08/02 01:21:38;;;;;;;7.57;4.13;;;16.80;99.90;;;;;;5040384;28;20437;-84
2021/08/02 01:30:53;;;;;;;5.53;3.30;;;16.80;99.90;;;;;;4989285;28;20435;-88
2021/08/02 01:34:10;;;;;;;6.33;3.70;;;16.80;99.90;;;;;;5034609;28;20434;-89
2021/08/02 01:37:06;;;;;;;4.70;3.60;;;16.80;99.90;;;;;;5010408;28;20450;-89
2021/08/02 01:42:42;;;;;;;4.17;3.33;;;16.80;99.90;;;;;;5036672;28;20832;-88
2021/08/02 01:45:25;;;;;;;5.87;3.87;;;16.80;99.90;;;;;;5040292;28;20915;-87
2021/08/02 01:48:03;;;;;;;8.23;4.10;;;16.80;99.90;;;;;;5052218;28;20464;-87
2021/08/02 01:51:24;;;;;;;5.00;3.60;;;16.80;99.90;;;;;;5039852;28;20455;-88
2021/08/02 01:54:00;;;;;;;4.33;3.83;;;16.90;99.90;;;;;;5020237;28;20445;-87
2021/08/02 02:00:02;;;;;;;4.20;3.70;;;16.90;99.90;;;;;;5072708;22;20556;-88
2021/08/02 02:02:33;;;;;;;4.10;3.70;;;16.80;99.90;;;;;;5031570;28;21015;-88
2021/08/02 02:05:57;;;;;;;;;;;;;;;;;;;;;
2021/08/02 02:11:49;;;;;;;8.43;3.80;;;16.80;99.90;;;;;;5021406;28;20480;-88
2021/08/02 02:20:46;;;;;;;8.87;4.43;;;16.80;99.90;;;;;;5020787;22;20506;-89
2021/08/02 02:23:32;;;;;;;4.73;3.60;;;16.80;99.90;;;;;;5013747;28;20518;-88
2021/08/02 02:26:13;;;;;;;4.23;3.93;;;16.80;99.90;;;;;;5014818;28;20439;-90
2021/08/02 02:28:44;;;;;;;3.87;3.30;;;16.90;99.90;;;;;;5014410;28;20476;-89
2021/08/02 02:31:30;;;;;;;4.80;3.57;;;16.80;99.90;;;;;;5005212;28;20453;-89
2021/08/02 02:34:05;;;;;;;3.97;3.53;;;16.80;99.90;;;;;;5017932;28;20549;-88
2021/08/02 02:36:48;;;;;;;3.40;3.10;;;16.80;99.90;;;;;;5020533;28;20446;-88
2021/08/02 02:39:21;;;;;;;3.77;3.33;;;16.70;99.90;;;;;;5017713;28;20481;-88
2021/08/02 02:42:05;;;;;;;3.30;2.97;;;16.70;99.90;;;;;;5020114;28;20445;-89
2021/08/02 02:44:36;;;;;;;6.97;3.07;;;16.70;99.90;;;;;;5021862;28;20448;-89
2021/08/02 02:47:07;;;;;;;3.70;3.40;;;16.60;99.90;;;;;;5013815;28;20516;-89
2021/08/02 02:50:07;;;;;;;9.80;4.00;;;16.60;99.90;;;;;;5013597;28;20457;-89
2021/08/02 02:52:43;;;;;;;4.33;3.60;;;16.50;99.90;;;;;;5019330;28;20492;-89
2021/08/02 02:55:18;;;;;;;3.30;3.00;;;16.50;99.90;;;;;;5017667;28;20544;-89
2021/08/02 03:01:36;;;;;;;6.13;4.03;;;16.50;99.90;;;;;;4957563;28;20444;-88
2021/08/02 03:04:08;;;;;;;3.80;3.50;;;16.40;99.90;;;;;;5013598;28;20464;-88
2021/08/02 03:06:42;;;;;;;5.20;3.50;;;16.40;99.90;;;;;;5007807;28;20471;-88
2021/08/02 03:09:12;;;;;;;5.33;3.50;;;16.40;99.90;;;;;;5010683;28;20528;-89
2021/08/02 03:11:39;;;;;;;4.13;3.83;;;16.40;99.90;;;;;;5013318;28;20516;-89
2021/08/02 03:14:06;;;;;;;6.33;3.60;;;16.40;99.90;;;;;;5011797;28;20453;-89
2021/08/02 03:16:34;;;;;;;6.30;2.83;;;16.30;99.90;;;;;;5014915;28;20450;-88
2021/08/02 03:22:43;;;;;;;4.10;3.30;;;16.30;99.90;;;;;;4990779;28;20453;-88
2021/08/02 03:25:16;;;;;;;3.70;3.40;;;16.30;99.90;;;;;;4989582;28;20526;-88
2021/08/02 03:28:05;;;;;;;5.67;4.20;;;16.30;99.90;;;;;;5008590;28;20523;-89
2021/08/02 03:30:59;;;;;;;6.43;3.50;;;16.30;99.90;;;;;;5015613;28;20426;-89
2021/08/02 03:33:38;;;;;;;4.40;4.00;;;16.30;99.90;;;;;;5007347;28;20466;-89
2021/08/02 03:36:28;;;;;;;4.10;3.70;;;16.30;99.90;;;;;;5010938;28;20939;-89
2021/08/02 03:39:24;;;;;;;4.53;3.67;;;16.40;99.90;;;;;;5015780;28;20509;-88
2021/08/02 03:42:08;;;;;;;5.83;3.47;;;16.40;99.90;;;;;;5014019;28;20461;-89
2021/08/02 03:44:36;;;;;;;9.47;4.40;;;16.40;99.90;;;;;;5017003;28;20451;-88
2021/08/02 03:47:04;;;;;;;5.90;3.90;;;16.40;99.90;;;;;;5021943;28;20533;-89
2021/08/02 03:49:32;;;;;;;5.87;3.80;;;16.50;99.90;;;;;;5018685;28;20461;-89
2021/08/02 03:52:01;;;;;;;3.70;3.40;;;16.50;99.90;;;;;;5011589;28;20480;-89
2021/08/02 03:54:31;;;;;;;4.83;3.67;;;16.50;99.90;;;;;;4998662;28;20451;-88
2021/08/02 03:57:01;;;;;;;7.77;4.40;;;16.50;99.90;;;;;;4997559;28;20455;-89
2021/08/02 03:59:28;;;;;;;5.97;4.40;;;16.50;99.90;;;;;;4998539;28;20861;-89
2021/08/02 04:01:55;;;;;;;5.23;4.10;;;16.50;99.90;;;;;;4998493;28;20458;-89
2021/08/02 04:04:22;;;;;;;5.57;4.37;;;16.50;99.90;;;;;;5009883;28;20446;-89
2021/08/02 04:06:50;;;;;;;6.33;3.97;;;16.50;99.90;;;;;;5021261;28;20453;-89
2021/08/02 04:09:16;;;;;;;7.20;4.30;;;16.50;99.90;;;;;;5014229;28;20461;-89
2021/08/02 04:11:45;;;;;;;4.70;4.27;;;16.50;99.90;;;;;;5003358;28;20450;-89
2021/08/02 04:14:12;;;;;;;3.67;3.37;;;16.50;99.90;;;;;;5018322;28;20462;-90
2021/08/02 04:16:40;;;;;;;4.30;3.90;;;16.50;99.90;;;;;;5009788;28;20457;-90
2021/08/02 04:19:06;;;;;;;4.43;3.30;;;16.50;99.90;;;;;;5006241;28;20470;-89
2021/08/02 04:21:34;;;;;;;4.17;3.70;;;16.60;99.90;;;;;;5006504;28;20458;-88
2021/08/02 04:24:02;;;;;;;4.00;3.70;;;16.60;99.90;;;;;;5020266;28;20445;-89
2021/08/02 04:26:29;;;;;;;6.80;3.47;;;16.60;99.90;;;;;;5019064;28;20457;-89
2021/08/02 04:29:05;;;;;;;4.23;3.83;;;16.60;99.90;;;;;;5064035;22;20501;-89
2021/08/02 04:31:35;;;;;;;5.23;3.33;;;16.70;99.90;;;;;;5048385;28;20584;-89
2021/08/02 04:34:02;;;;;;;8.33;4.10;;;16.70;99.90;;;;;;5055021;28;20472;-89
2021/08/02 04:36:36;;;;;;;5.10;3.30;;;16.70;99.90;;;;;;5054980;28;20453;-89
2021/08/02 04:39:23;;;;;;;5.07;4.00;;;16.80;99.90;;;;;;5032295;28;20517;-89
2021/08/02 04:42:13;;;;;;;4.90;3.97;;;16.80;99.90;;;;;;5017641;28;20434;-89
2021/08/02 04:50:01;;;;;;;8.37;4.70;;;16.90;99.90;;;;;;5450698;22;20479;-87
2021/08/02 04:52:50;;;;;;;6.27;4.27;;;16.90;99.90;;;;;;5055584;28;20478;-88
2021/08/02 04:55:24;;;;;;;5.20;4.63;;;16.90;99.90;;;;;;5045648;28;20445;-88
2021/08/02 04:58:02;;;;;;;5.87;4.20;;;16.90;99.90;;;;;;5042115;28;20453;-88
2021/08/02 05:00:55;;;;;;;8.30;5.13;;;17.00;99.90;;;;;;5033346;28;20450;-88
2021/08/02 05:03:27;;;;;;;7.67;4.33;;;17.00;99.90;;;;;;5031456;28;20453;-88
2021/08/02 05:06:13;;;;;;;5.60;3.97;;;17.00;99.90;;;;;;5026883;28;20434;-88
2021/08/02 05:08:49;;;;;;;5.40;4.30;;;17.00;99.90;;;;;;5034377;28;20445;-86
2021/08/02 05:11:21;;;;;;;6.03;4.07;;;17.10;99.90;;;;;;5026619;28;20480;-90
2021/08/02 05:13:51;;;;;;;6.43;3.63;;;17.20;99.90;;;;;;5032140;28;20481;-86
2021/08/02 05:16:20;;;;;;;5.60;4.20;;;17.20;99.90;;;;;;5030566;28;20540;-88
2021/08/02 05:18:47;;;;;;;7.40;3.57;;;17.30;99.90;;;;;;5029679;28;20461;-87
2021/08/02 05:21:14;;;;;;;7.17;4.00;;;17.20;99.90;;;;;;5023370;28;20436;-89
2021/08/02 05:23:41;;;;;;;4.30;3.90;;;17.20;99.90;;;;;;5021969;28;21011;-88
2021/08/02 05:26:11;;;;;;;3.90;3.53;;;17.30;99.90;;;;;;5022581;28;20485;-88
2021/08/02 05:28:43;;;;;;;3.60;3.30;;;17.30;99.90;;;;;;5026576;28;20469;-88
2021/08/02 05:31:12;;;;;;;6.60;3.60;;;17.30;99.90;;;;;;5037315;28;20540;-88
2021/08/02 05:33:44;;;;;;;6.40;3.57;;;17.30;99.90;;;;;;5039772;28;20512;-88
2021/08/02 05:36:13;;;;;;;4.83;3.80;;;17.30;99.90;;;;;;5056329;28;20450;-88
2021/08/02 05:38:43;;;;;;;4.60;3.40;;;17.30;99.90;;;;;;5024853;28;20498;-88
2021/08/02 05:41:16;;;;;;;3.83;3.53;;;17.30;99.90;;;;;;5019080;28;20504;-89
2021/08/02 05:44:35;;;;;;;7.00;3.20;;;17.30;99.90;;;;;;5019833;28;20442;-87
2021/08/02 05:47:11;;;;;;;3.20;2.90;;;17.20;99.90;;;;;;4965568;28;20443;-88
2021/08/02 05:49:38;;;;;;;3.93;3.53;;;17.20;99.90;;;;;;5038430;28;21030;-90
2021/08/02 05:52:19;;;;;;;4.27;3.87;;;17.20;99.90;;;;;;5038214;28;20460;-88
2021/08/02 05:54:56;;;;;;;5.90;4.10;;;17.30;99.90;;;;;;5046333;28;20472;-88
2021/08/02 05:57:32;;;;;;;3.30;2.80;;;17.30;99.90;;;;;;5053761;28;20459;-88
2021/08/02 06:00:06;;;;;;;5.03;3.10;;;17.30;99.90;;;;;;5031716;28;20438;-88
2021/08/02 06:02:43;;;;;;;4.97;3.77;;;17.40;99.90;;;;;;5024024;28;20502;-89
2021/08/02 06:07:57;;;;;;;4.37;3.10;;;17.40;99.90;;;;;;5026515;28;20463;-88
2021/08/02 06:10:31;;;;;;;4.73;2.80;;;17.50;99.90;;;;;;5043287;28;20445;-89
2021/08/02 06:13:00;;;;;;;3.90;3.60;;;17.60;99.90;;;;;;5047676;28;20487;-88
2021/08/02 06:15:28;;;;;;;5.67;3.00;;;17.60;99.90;;;;;;5037399;28;20442;-88
2021/08/02 06:18:00;;;;;;;3.00;2.60;;;17.70;99.90;;;;;;5032888;28;20464;-89
2021/08/02 06:20:33;;;;;;;4.53;3.43;;;17.70;99.90;;;;;;5018754;28;20490;-89
2021/08/02 06:23:08;;;;;;;5.33;3.73;;;17.80;99.90;;;;;;5034472;28;20516;-89
2021/08/02 06:25:40;;;;;;;5.53;3.20;;;17.90;99.90;;;;;;5024209;28;20438;-88
2021/08/02 06:28:09;;;;;;;3.37;3.07;;;17.90;99.90;;;;;;5030365;28;20480;-88
2021/08/02 06:30:49;;;;;;;3.80;2.70;;;18.00;99.90;;;;;;5045467;28;20446;-89
2021/08/02 06:33:28;;;;;;;2.70;2.50;;;18.10;99.90;;;;;;5017175;28;20510;-88
2021/08/02 06:35:55;;;;;;;6.10;3.60;;;18.10;99.90;;;;;;5025768;28;20463;-89
2021/08/02 06:38:22;;;;;;;7.17;3.97;;;18.20;99.90;;;;;;5046183;28;20475;-88
2021/08/02 06:40:54;;;;;;;4.63;3.30;;;18.20;99.90;;;;;;5036631;28;20471;-87
2021/08/02 06:43:30;;;;;;;7.10;4.00;;;18.10;99.90;;;;;;5038000;28;20493;-88
2021/08/02 06:46:02;;;;;;;7.10;3.77;;;18.20;99.90;;;;;;5036865;28;20451;-89
2021/08/02 06:48:30;;;;;;;3.63;3.13;;;18.30;99.90;;;;;;5017595;28;20480;-88
2021/08/02 06:50:59;;;;;;;4.17;3.30;;;18.40;99.90;;;;;;5018609;28;20440;-87
2021/08/02 06:53:28;;;;;;;5.73;2.90;;;18.50;99.90;;;;;;5024024;28;20475;-87
2021/08/02 06:55:58;;;;;;;6.03;3.27;;;18.60;99.90;;;;;;5020700;28;20461;-87
2021/08/02 06:58:27;;;;;;;5.20;3.33;;;18.70;99.90;;;;;;5035598;28;20564;-87
2021/08/02 07:00:59;;;;;;;4.40;4.00;;;18.70;99.90;;;;;;5015394;28;20486;-88
2021/08/02 07:03:26;;;;;;;4.10;3.50;;;18.60;99.90;;;;;;5016662;28;20642;-88
2021/08/02 07:06:03;;;;;;;9.67;4.60;;;18.70;99.90;;;;;;5013620;28;20467;-88
2021/08/02 07:08:40;;;;;;;4.03;3.70;;;18.70;99.90;;;;;;5010284;28;20469;-88
2021/08/02 07:11:19;;;;;;;8.10;3.47;;;18.80;99.90;;;;;;5005259;28;20943;-88
2021/08/02 07:13:59;;;;;;;5.77;3.20;;;18.90;99.90;;;;;;4996816;28;20570;-89
2021/08/02 07:16:26;;;;;;;7.00;2.87;;;19.20;99.90;;;;;;5005454;28;20473;-89
2021/08/02 07:18:53;;;;;;;3.60;2.80;;;19.40;99.90;;;;;;5019315;28;20484;-89
2021/08/02 07:21:21;;;;;;;3.03;2.40;;;19.50;99.90;;;;;;5001866;28;20459;-87
2021/08/02 07:23:48;;;;;;;3.70;2.47;;;19.40;99.90;;;;;;5015045;28;20439;-88
2021/08/02 07:26:15;;;;;;;6.43;3.00;;;19.50;99.90;;;;;;5006578;28;20826;-87
2021/08/02 07:28:43;;;;;;;4.27;2.90;;;19.70;99.90;;;;;;5023373;28;20468;-87
2021/08/02 07:31:10;;;;;;;5.17;3.30;;;19.70;99.90;;;;;;5021137;28;20466;-87
2021/08/02 07:33:38;;;;;;;6.70;3.23;;;20.00;99.90;;;;;;5016234;28;20751;-88
2021/08/02 07:36:07;;;;;;;5.70;3.70;;;20.20;99.90;;;;;;5016872;28;20491;-87
2021/08/02 07:38:35;;;;;;;4.07;3.27;;;20.30;99.90;;;;;;5019984;28;20537;-86
2021/08/02 07:41:02;;;;;;;4.03;2.47;;;20.50;99.90;;;;;;5010045;28;20464;-86
2021/08/02 07:43:29;;;;;;;3.30;3.00;;;20.60;99.90;;;;;;5005881;28;20454;-89
2021/08/02 07:45:56;;;;;;;4.33;3.93;;;20.70;99.90;;;;;;5011143;28;20456;-86
2021/08/02 07:48:23;;;;;;;5.70;3.10;;;20.70;99.90;;;;;;5000457;28;20592;-86
2021/08/02 07:50:49;;;;;;;7.60;2.97;;;20.90;99.90;;;;;;4995455;28;20461;-86
2021/08/02 07:53:16;;;;;;;3.50;2.60;;;21.10;99.90;;;;;;5000553;28;20485;-86
2021/08/02 07:55:45;;;;;;;5.10;3.30;;;21.30;99.90;;;;;;4995536;28;20450;-88
2021/08/02 07:58:12;;;;;;;2.90;2.47;;;21.50;99.90;;;;;;5000922;28;20465;-86
2021/08/02 08:00:38;;;;;;;4.97;2.83;;;22.20;99.50;;;;;;5018902;28;20837;-87
2021/08/02 08:03:05;;;;;;;4.40;2.37;;;22.50;98.10;;;;;;5031735;28;20439;-87
2021/08/02 08:05:32;;;;;;;3.23;2.77;;;22.80;97.80;;;;;;5029301;28;20436;-88
2021/08/02 08:07:58;;;;;;;8.63;3.53;;;23.20;96.90;;;;;;5020827;28;20482;-88
2021/08/02 08:10:27;;;;;;;5.37;3.10;;;23.50;96.90;;;;;;5017513;28;20452;-88
2021/08/02 08:12:55;;;;;;;5.60;3.00;;;23.40;96.50;;;;;;5017039;28;20440;-87
2021/08/02 08:15:23;;;;;;;6.90;3.17;;;23.10;96.60;;;;;;5014800;28;20472;-87
2021/08/02 08:17:51;;;;;;;4.17;2.83;;;23.80;95.30;;;;;;5016418;28;20475;-88
2021/08/02 08:20:19;;;;;;;6.87;4.00;;;24.20;94.20;;;;;;5001114;28;20453;-88
2021/08/02 08:22:46;;;;;;;8.83;3.00;;;25.60;93.00;;;;;;5005531;28;20426;-88
2021/08/02 08:25:13;;;;;;;3.30;2.63;;;27.10;90.00;;;;;;5025010;28;20449;-89
2021/08/02 08:27:40;;;;;;;3.00;2.20;;;27.10;86.00;;;;;;5011048;28;20464;-89
2021/08/02 08:30:10;;;;;;;4.80;3.00;;;27.70;82.90;;;;;;5006978;28;20978;-88
2021/08/02 08:32:38;;;;;;;6.10;2.60;;;29.10;78.60;;;;;;5006501;28;20540;-88
2021/08/02 08:35:05;;;;;;;2.57;2.37;;;29.10;77.50;;;;;;5010864;28;20484;-88
2021/08/02 08:37:32;;;;;;;3.00;2.10;;;29.50;74.10;;;;;;5036876;28;20441;-89
2021/08/02 08:39:59;;;;;;;3.63;2.80;;;29.30;71.20;;;;;;5019818;28;20445;-88
2021/08/02 08:42:26;;;;;;;3.30;2.10;;;28.40;74.00;;;;;;5013993;28;20491;-88
2021/08/02 08:44:52;;;;;;;3.30;2.80;;;28.10;75.20;;;;;;5016163;28;20466;-88
2021/08/02 08:47:20;;;;;;;4.87;2.10;;;28.60;72.40;;;;;;4999708;28;20797;-88
2021/08/02 08:49:47;;;;;;;3.20;2.20;;;29.30;71.40;;;;;;4996286;28;20459;-88
2021/08/02 08:52:15;;;;;;;2.90;2.17;;;30.20;68.80;;;;;;5003381;28;20461;-88
2021/08/02 08:54:42;;;;;;;3.27;2.30;;;30.20;68.00;;;;;;5015116;28;20482;-87
2021/08/02 08:57:11;;;;;;;2.57;1.50;;;29.80;68.50;;;;;;5012075;28;20535;-86
2021/08/02 08:59:46;;;;;;;3.33;2.03;;;28.60;63.50;;;;;;4996357;28;20525;-87
2021/08/02 09:02:13;;;;;;;2.33;1.63;;;28.60;65.80;;;;;;4996621;28;20524;-88
2021/08/02 09:04:41;;;;;;;2.33;1.70;;;28.30;66.20;;;;;;4998901;28;20449;-87
2021/08/02 09:07:10;;;;;;;2.73;1.93;;;27.90;67.20;;;;;;5002658;28;20959;-88
2021/08/02 09:09:36;;;;;;;2.63;2.30;;;27.40;66.90;;;;;;5027694;28;20575;-88
2021/08/02 09:12:08;;;;;;;2.60;1.70;;;27.20;69.40;;;;;;5011821;28;20462;-88
2021/08/02 09:14:35;;;;;;;2.03;1.77;;;26.80;70.10;;;;;;5003353;28;20486;-87
2021/08/02 09:17:02;;;;;;;2.50;1.87;;;26.80;70.50;;;;;;4996896;28;20451;-87
2021/08/02 09:19:41;;;;;;;1.60;1.50;;;28.00;68.20;;;;;;4996058;28;20478;-88
2021/08/02 09:22:08;;;;;;;1.73;1.40;;;29.50;63.40;;;;;;4996964;28;20463;-87
2021/08/02 09:24:36;;;;;;;2.90;1.93;;;29.90;61.40;;;;;;5013800;28;20447;-87
2021/08/02 09:27:03;;;;;;;2.53;1.60;;;31.10;59.40;;;;;;5018812;28;20947;-88
2021/08/02 09:29:30;;;;;;;3.70;2.33;;;31.70;57.70;;;;;;5023354;28;20821;-88
2021/08/02 09:31:58;;;;;;;2.43;1.40;;;31.70;55.10;;;;;;5015818;28;20445;-88
2021/08/02 09:34:24;;;;;;;1.93;1.30;;;32.30;54.30;;;;;;5015883;28;20536;-88
2021/08/02 09:36:57;;;;;;;2.63;1.73;;;32.70;51.50;;;;;;5015372;28;20461;-88
2021/08/02 09:39:31;;;;;;;2.20;1.53;;;33.80;50.60;;;;;;5014650;28;20524;-88
2021/08/02 09:42:03;;;;;;;1.43;1.33;;;35.00;48.50;;;;;;5002011;28;20454;-87
2021/08/02 09:44:30;;;;;;;4.40;1.43;;;34.90;47.60;;;;;;5002440;28;20449;-88
2021/08/02 09:46:58;;;;;;;2.53;1.63;;;36.30;46.10;;;;;;5006259;28;21029;-87
2021/08/02 09:49:25;;;;;;;3.30;2.27;;;36.40;44.50;;;;;;5009274;28;20461;-88
2021/08/02 09:51:54;;;;;;;1.50;1.40;;;36.70;43.60;;;;;;5007526;28;20435;-87
2021/08/02 09:54:25;;;;;;;4.20;1.50;;;38.00;42.60;;;;;;5013034;28;20507;-86
2021/08/02 09:56:53;;;;;;;2.40;1.70;;;36.00;41.60;;;;;;5006445;28;20457;-88
2021/08/02 09:59:20;;;;;;;1.80;1.43;;;35.20;43.20;;;;;;5009391;28;20468;-89
2021/08/02 10:01:50;;;;;;;2.47;2.00;;;32.10;46.70;;;;;;5012852;28;20443;-87
2021/08/02 10:04:18;;;;;;;2.83;1.63;;;28.70;52.10;;;;;;5012901;28;20449;-88
2021/08/02 10:06:45;;;;;;;2.27;1.83;;;26.90;57.50;;;;;;5009540;28;20439;-87
2021/08/02 10:09:14;;;;;;;2.43;2.20;;;26.50;60.50;;;;;;5007729;28;20482;-87
2021/08/02 10:11:40;;;;;;;4.73;2.23;;;26.40;61.10;;;;;;5008771;28;20442;-87
2021/08/02 10:14:08;;;;;;;2.57;1.70;;;26.30;61.20;;;;;;5002492;28;20478;-87
2021/08/02 10:16:38;;;;;;;2.47;2.27;;;26.10;61.70;;;;;;5005927;28;20446;-88
2021/08/02 10:19:06;;;;;;;1.87;1.77;;;25.70;63.80;;;;;;5006262;28;20886;-86
2021/08/02 10:21:44;;;;;;;2.17;1.97;;;25.40;64.90;;;;;;5003011;28;20440;-87
2021/08/02 10:24:14;;;;;;;3.33;2.80;;;25.10;66.30;;;;;;5006085;28;20928;-88
2021/08/02 10:26:42;;;;;;;14.03;5.47;;;24.70;68.70;;;;;;5015539;28;20481;-85
2021/08/02 10:29:09;;;;;;;5.40;2.90;;;24.00;82.20;;;;;;5006205;28;20995;-87
2021/08/02 10:31:44;;;;;;;5.43;2.23;;;23.30;87.30;;;;;;5005173;28;20813;-84
2021/08/02 10:34:15;;;;;;;2.90;2.20;;;22.80;90.80;;;;;;5007258;28;20520;-85
2021/08/02 10:36:43;;;;;;;2.80;2.17;;;22.80;91.30;;;;;;5009490;28;20468;-85
2021/08/02 10:39:23;;;;;;;2.37;1.97;;;22.70;88.80;;;;;;5020112;28;20484;-85
2021/08/02 10:41:50;;;;;;;2.70;2.10;;;22.50;88.70;;;;;;4995709;28;20453;-86
2021/08/02 10:44:19;;;;;;;4.00;2.33;;;22.40;90.10;;;;;;4995457;28;20842;-85
2021/08/02 10:46:45;;;;;;;5.30;2.53;;;22.20;92.60;;;;;;4994999;28;20555;-85
2021/08/02 10:49:14;;;;;;;6.23;2.93;;;21.90;93.30;;;;;;4994804;28;20523;-85
2021/08/02 10:51:48;;;;;;;3.47;2.37;;;21.50;95.10;;;;;;5002147;28;20477;-86
2021/08/02 10:54:16;;;;;;;2.87;2.60;;;21.20;97.30;;;;;;5034824;28;20472;-86
2021/08/02 10:56:48;;;;;;;3.23;2.40;;;20.90;98.80;;;;;;5024261;28;20454;-86
2021/08/02 10:59:16;;;;;;;3.30;2.40;;;20.80;99.90;;;;;;5023850;28;20469;-85
2021/08/02 11:01:46;;;;;;;3.73;2.17;;;20.70;99.90;;;;;;5014431;28;20540;-85
2021/08/02 11:04:14;;;;;;;15.60;4.10;;;20.50;99.90;;;;;;5013495;28;20452;-86
2021/08/02 11:06:41;;;;;;;11.70;4.43;;;20.10;99.90;;;;;;5003525;28;20460;-86
2021/08/02 11:09:08;;;;;;;4.43;3.80;;;19.70;99.90;;;;;;5007865;28;20974;-87
2021/08/02 11:11:37;;;;;;;3.53;2.90;;;19.30;99.90;;;;;;5005865;28;20447;-86
2021/08/02 11:14:10;;;;;;;4.13;2.70;;;19.30;99.90;;;;;;4995538;28;20481;-88
2021/08/02 11:16:40;;;;;;;7.00;2.87;;;19.20;99.90;;;;;;4994532;28;20456;-87
2021/08/02 11:19:21;;;;;;;3.30;2.70;;;19.00;99.90;;;;;;4994247;28;20534;-87
2021/08/02 11:21:48;;;;;;;7.30;3.90;;;18.70;99.90;;;;;;5009865;28;20450;-87
2021/08/02 11:24:15;;;;;;;3.23;2.93;;;18.40;99.90;;;;;;4994959;28;20659;-87
2021/08/02 11:26:47;;;;;;;4.60;3.10;;;18.20;99.90;;;;;;4995402;28;20447;-87
2021/08/02 11:29:21;;;;;;;2.90;2.27;;;17.80;99.90;;;;;;4994689;28;20893;-87
2021/08/02 11:31:59;;;;;;;3.30;2.37;;;17.60;99.90;;;;;;4995126;28;20806;-87
2021/08/02 11:34:27;;;;;;;3.57;2.70;;;17.40;99.90;;;;;;4995792;28;20478;-87
2021/08/02 11:37:02;;;;;;;5.83;2.33;;;17.40;99.90;;;;;;5013175;28;20971;-87
2021/08/02 11:39:30;;;;;;;4.20;2.50;;;17.70;99.90;;;;;;5025091;28;20481;-87
2021/08/02 11:42:04;;;;;;;3.67;2.80;;;19.20;99.90;;;;;;5031833;28;20438;-87
2021/08/02 11:44:33;;;;;;;2.30;1.83;;;20.30;99.90;;;;;;4995060;28;20443;-87
2021/08/02 11:47:01;;;;;;;1.67;1.40;;;20.40;99.90;;;;;;4994416;28;20464;-87
2021/08/02 11:49:28;;;;;;;1.70;1.60;;;20.70;99.90;;;;;;5004776;28;21001;-88
2021/08/02 11:51:56;;;;;;;3.57;1.77;;;21.00;99.90;;;;;;5014195;28;20445;-87
2021/08/02 11:54:24;;;;;;;3.20;2.03;;;21.00;99.90;;;;;;5016915;28;20486;-88
2021/08/02 11:56:51;;;;;;;3.87;2.03;;;20.80;99.90;;;;;;5030669;28;20450;-86
2021/08/02 11:59:19;;;;;;;2.63;2.00;;;20.60;99.90;;;;;;5023479;28;20499;-87
2021/08/02 12:01:50;;;;;;;2.40;1.90;;;20.30;99.90;;;;;;5017806;28;20579;-86
2021/08/02 12:04:17;;;;;;;2.80;2.03;;;20.00;99.90;;;;;;5017401;28;20941;-86
2021/08/02 12:06:49;;;;;;;2.63;2.23;;;19.90;99.90;;;;;;5010775;28;20935;-86
2021/08/02 12:09:16;;;;;;;2.30;2.00;;;19.80;99.90;;;;;;5009493;28;20476;-86
2021/08/02 12:11:45;;;;;;;4.00;2.33;;;20.00;99.90;;;;;;5002559;28;20463;-86
2021/08/02 12:14:24;;;;;;;3.73;3.03;;;20.00;99.90;;;;;;5002795;28;20462;-86
2021/08/02 12:17:01;;;;;;;7.87;4.43;;;20.10;99.90;;;;;;5009478;28;20483;-86
2021/08/02 12:19:27;;;;;;;3.27;2.63;;;20.20;99.90;;;;;;5000955;28;20496;-86
2021/08/02 12:21:55;;;;;;;4.00;3.07;;;20.40;99.90;;;;;;5011748;28;20456;-86
2021/08/02 12:24:22;;;;;;;4.70;4.17;;;20.40;99.90;;;;;;5004998;28;20468;-86
2021/08/02 12:26:50;;;;;;;7.67;4.47;;;20.20;99.90;;;;;;5012256;28;20930;-86
2021/08/02 12:29:25;;;;;;;2.43;2.23;;;20.10;99.90;;;;;;5008478;28;20519;-86
2021/08/02 12:31:58;;;;;;;4.30;2.10;;;19.80;99.90;;;;;;5001640;28;20514;-86
2021/08/02 12:34:26;;;;;;;5.13;3.30;;;19.40;99.90;;;;;;5002848;28;20482;-86
2021/08/02 12:36:53;;;;;;;2.63;2.17;;;19.10;99.90;;;;;;5009109;28;20448;-86
2021/08/02 12:39:20;;;;;;;2.23;1.77;;;18.90;99.90;;;;;;5022541;28;20498;-87
2021/08/02 12:41:47;;;;;;;1.50;1.40;;;18.80;99.90;;;;;;5039676;28;20441;-86
2021/08/02 12:44:14;;;;;;;1.87;1.63;;;18.80;99.90;;;;;;5015369;28;20463;-86
2021/08/02 12:46:40;;;;;;;1.60;1.50;;;19.10;99.90;;;;;;5012697;28;20455;-86
2021/08/02 12:49:08;;;;;;;1.53;1.43;;;20.60;99.90;;;;;;4996704;28;20466;-86
2021/08/02 12:51:35;;;;;;;1.70;1.60;;;22.30;99.90;;;;;;4999272;28;20454;-87
2021/08/02 12:54:02;;;;;;;2.17;1.70;;;24.20;99.90;;;;;;5004062;28;20515;-88
2021/08/02 12:56:28;;;;;;;2.37;1.80;;;26.70;98.10;;;;;;4996028;28;20489;-87
2021/08/02 12:58:55;;;;;;;2.83;1.60;;;28.50;90.40;;;;;;5007793;28;20481;-87
2021/08/02 13:01:22;;;;;;;1.43;1.33;;;30.30;82.70;;;;;;5014768;28;20491;-88
2021/08/02 13:03:49;;;;;;;2.67;1.57;;;30.80;77.20;;;;;;5014231;28;20570;-87
2021/08/02 13:06:20;;;;;;;6.00;1.70;;;30.50;76.40;;;;;;5011857;28;20450;-87
2021/08/02 13:08:46;;;;;;;2.83;1.77;;;28.70;77.50;;;;;;4996505;28;20473;-88
2021/08/02 13:11:14;;;;;;;3.27;1.83;;;27.00;83.60;;;;;;4996425;28;20454;-88
2021/08/02 13:13:41;;;;;;;2.70;1.83;;;26.10;89.00;;;;;;4996779;28;20455;-87
2021/08/02 13:16:07;;;;;;;2.57;1.90;;;25.60;91.30;;;;;;4997116;28;20478;-87
2021/08/02 13:18:34;;;;;;;3.50;2.57;;;24.80;91.70;;;;;;4996100;28;20478;-87
2021/08/02 13:21:01;;;;;;;3.80;2.03;;;23.90;93.30;;;;;;5002382;28;20457;-88
2021/08/02 13:23:36;;;;;;;2.43;2.23;;;23.20;94.30;;;;;;5001439;28;20497;-87
2021/08/02 13:28:47;;;;;;;4.57;2.40;;;22.30;99.50;;;;;;4996516;28;20523;-88
2021/08/02 13:31:14;;;;;;;3.63;2.47;;;21.90;99.90;;;;;;4995502;28;20451;-88
2021/08/02 13:33:41;;;;;;;3.77;3.47;;;21.50;99.90;;;;;;4995219;28;20451;-88
2021/08/02 13:36:07;;;;;;;3.70;2.60;;;21.20;99.90;;;;;;5006693;28;20477;-89
2021/08/02 13:38:35;;;;;;;3.03;1.87;;;21.00;99.90;;;;;;5015615;28;20497;-88
2021/08/02 13:41:02;;;;;;;3.70;1.80;;;20.70;99.90;;;;;;5016691;28;20457;-87
2021/08/02 13:43:29;;;;;;;1.90;1.60;;;20.50;99.90;;;;;;5015309;28;20461;-88
2021/08/02 13:45:56;;;;;;;2.17;1.97;;;20.40;99.90;;;;;;5014306;28;20460;-87
2021/08/02 13:48:23;;;;;;;2.83;2.37;;;20.30;99.90;;;;;;5014180;28;20472;-88
2021/08/02 13:50:50;;;;;;;3.00;2.23;;;20.10;99.90;;;;;;5000925;28;20481;-87